sensor_id;sensor_type;location;lat;lon;timestamp;P1;durP1;ratioP1;P2;durP2;ratioP2
38465;SDS011;24244;51.950;5.902;2022-09-29T00:01:53;9.48;;;5.07;;
38465;SDS011;24244;51.950;5.902;2022-09-29T00:04:20;8.45;;;5.00;;
38465;SDS011;24244;51.950;5.902;2022-09-29T00:06:45;9.32;;;5.22;;
38465;SDS011;24244;51.950;5.902;2022-09-29T00:09:11;8.98;;;5.32;;
38465;SDS011;24244;51.950;5.902;2022-09-29T00:11:36;8.88;;;5.18;;
38465;SDS011;24244;51.950;5.902;2022-09-29T00:14:02;8.85;;;5.03;;
38465;SDS011;24244;51.950;5.902;2022-09-29T00:16:27;9.00;;;4.68;;
38465;SDS011;24244;51.950;5.902;2022-09-29T00:18:53;8.77;;;4.95;;
38465;SDS011;24244;51.950;5.902;2022-09-29T00:21:20;9.15;;;4.93;;
38465;SDS011;24244;51.950;5.902;2022-09-29T00:23:47;9.35;;;5.10;;
38465;SDS011;24244;51.950;5.902;2022-09-29T00:26:14;8.85;;;4.88;;
38465;SDS011;24244;51.950;5.902;2022-09-29T00:28:45;8.07;;;4.97;;
38465;SDS011;24244;51.950;5.902;2022-09-29T00:31:13;8.00;;;4.68;;
38465;SDS011;24244;51.950;5.902;2022-09-29T00:33:39;8.95;;;4.90;;
38465;SDS011;24244;51.950;5.902;2022-09-29T00:36:05;8.68;;;5.25;;
38465;SDS011;24244;51.950;5.902;2022-09-29T00:38:33;9.57;;;4.90;;
38465;SDS011;24244;51.950;5.902;2022-09-29T00:40:59;9.52;;;5.07;;
38465;SDS011;24244;51.950;5.902;2022-09-29T00:43:45;8.23;;;4.65;;
38465;SDS011;24244;51.950;5.902;2022-09-29T00:46:16;9.48;;;4.90;;
38465;SDS011;24244;51.950;5.902;2022-09-29T00:48:45;8.43;;;4.75;;
38465;SDS011;24244;51.950;5.902;2022-09-29T00:51:12;8.30;;;4.80;;
38465;SDS011;24244;51.950;5.902;2022-09-29T00:53:39;9.73;;;5.15;;
38465;SDS011;24244;51.950;5.902;2022-09-29T00:56:06;8.18;;;4.78;;
38465;SDS011;24244;51.950;5.902;2022-09-29T00:58:35;9.65;;;5.00;;
38465;SDS011;24244;51.950;5.902;2022-09-29T01:01:06;8.25;;;4.47;;
38465;SDS011;24244;51.950;5.902;2022-09-29T01:03:32;8.10;;;4.82;;
38465;SDS011;24244;51.950;5.902;2022-09-29T01:06:02;8.82;;;5.05;;
38465;SDS011;24244;51.950;5.902;2022-09-29T01:08:35;9.20;;;4.95;;
38465;SDS011;24244;51.950;5.902;2022-09-29T01:11:04;7.82;;;4.60;;
38465;SDS011;24244;51.950;5.902;2022-09-29T01:13:30;8.25;;;4.72;;
38465;SDS011;24244;51.950;5.902;2022-09-29T01:15:57;7.90;;;4.63;;
38465;SDS011;24244;51.950;5.902;2022-09-29T01:18:24;8.35;;;4.82;;
38465;SDS011;24244;51.950;5.902;2022-09-29T01:20:51;7.97;;;4.50;;
38465;SDS011;24244;51.950;5.902;2022-09-29T01:26:39;8.15;;;4.40;;
38465;SDS011;24244;51.950;5.902;2022-09-29T01:32:28;8.68;;;4.38;;
38465;SDS011;24244;51.950;5.902;2022-09-29T01:35:05;8.52;;;4.40;;
38465;SDS011;24244;51.950;5.902;2022-09-29T01:37:39;8.32;;;4.65;;
38465;SDS011;24244;51.950;5.902;2022-09-29T01:40:14;8.57;;;4.40;;
38465;SDS011;24244;51.950;5.902;2022-09-29T01:45:14;7.78;;;4.22;;
38465;SDS011;24244;51.950;5.902;2022-09-29T01:47:48;7.22;;;4.05;;
38465;SDS011;24244;51.950;5.902;2022-09-29T01:50:19;8.65;;;4.47;;
38465;SDS011;24244;51.950;5.902;2022-09-29T01:52:49;9.23;;;4.40;;
38465;SDS011;24244;51.950;5.902;2022-09-29T01:55:18;7.90;;;4.50;;
38465;SDS011;24244;51.950;5.902;2022-09-29T01:57:48;8.07;;;4.40;;
38465;SDS011;24244;51.950;5.902;2022-09-29T02:00:17;9.40;;;4.78;;
38465;SDS011;24244;51.950;5.902;2022-09-29T02:02:45;8.65;;;4.70;;
38465;SDS011;24244;51.950;5.902;2022-09-29T02:05:16;9.00;;;4.85;;
38465;SDS011;24244;51.950;5.902;2022-09-29T02:07:45;8.32;;;4.50;;
38465;SDS011;24244;51.950;5.902;2022-09-29T02:10:13;7.97;;;4.43;;
38465;SDS011;24244;51.950;5.902;2022-09-29T02:12:42;8.35;;;4.97;;
38465;SDS011;24244;51.950;5.902;2022-09-29T02:15:11;8.85;;;4.30;;
38465;SDS011;24244;51.950;5.902;2022-09-29T02:17:41;9.23;;;4.35;;
38465;SDS011;24244;51.950;5.902;2022-09-29T02:20:14;8.25;;;4.75;;
38465;SDS011;24244;51.950;5.902;2022-09-29T02:22:40;8.52;;;5.07;;
38465;SDS011;24244;51.950;5.902;2022-09-29T02:25:06;7.88;;;4.43;;
38465;SDS011;24244;51.950;5.902;2022-09-29T02:27:35;7.97;;;4.47;;
38465;SDS011;24244;51.950;5.902;2022-09-29T02:30:00;8.48;;;4.60;;
38465;SDS011;24244;51.950;5.902;2022-09-29T02:32:26;8.55;;;4.80;;
38465;SDS011;24244;51.950;5.902;2022-09-29T02:34:54;8.55;;;4.78;;
38465;SDS011;24244;51.950;5.902;2022-09-29T02:37:34;8.38;;;4.68;;
38465;SDS011;24244;51.950;5.902;2022-09-29T02:40:27;8.10;;;4.63;;
38465;SDS011;24244;51.950;5.902;2022-09-29T02:43:06;8.65;;;4.90;;
38465;SDS011;24244;51.950;5.902;2022-09-29T02:45:40;7.93;;;4.50;;
38465;SDS011;24244;51.950;5.902;2022-09-29T02:48:32;8.32;;;4.82;;
38465;SDS011;24244;51.950;5.902;2022-09-29T02:51:27;8.20;;;4.20;;
38465;SDS011;24244;51.950;5.902;2022-09-29T02:54:00;8.02;;;4.47;;
38465;SDS011;24244;51.950;5.902;2022-09-29T02:56:37;7.57;;;4.43;;
38465;SDS011;24244;51.950;5.902;2022-09-29T02:59:12;7.78;;;4.28;;
38465;SDS011;24244;51.950;5.902;2022-09-29T03:01:46;8.27;;;4.60;;
38465;SDS011;24244;51.950;5.902;2022-09-29T03:04:13;8.02;;;4.28;;
38465;SDS011;24244;51.950;5.902;2022-09-29T03:06:38;8.50;;;4.15;;
38465;SDS011;24244;51.950;5.902;2022-09-29T03:09:05;9.35;;;4.80;;
38465;SDS011;24244;51.950;5.902;2022-09-29T03:11:31;8.25;;;4.55;;
38465;SDS011;24244;51.950;5.902;2022-09-29T03:13:56;8.45;;;4.50;;
38465;SDS011;24244;51.950;5.902;2022-09-29T03:16:22;9.65;;;5.03;;
38465;SDS011;24244;51.950;5.902;2022-09-29T03:18:47;8.68;;;4.97;;
38465;SDS011;24244;51.950;5.902;2022-09-29T03:21:13;8.40;;;4.65;;
38465;SDS011;24244;51.950;5.902;2022-09-29T03:23:38;9.18;;;5.20;;
38465;SDS011;24244;51.950;5.902;2022-09-29T03:26:05;8.00;;;4.63;;
38465;SDS011;24244;51.950;5.902;2022-09-29T03:28:31;9.75;;;4.95;;
38465;SDS011;24244;51.950;5.902;2022-09-29T03:31:02;8.38;;;4.50;;
38465;SDS011;24244;51.950;5.902;2022-09-29T03:33:29;8.23;;;4.43;;
38465;SDS011;24244;51.950;5.902;2022-09-29T03:35:54;8.75;;;4.55;;
38465;SDS011;24244;51.950;5.902;2022-09-29T03:38:20;8.00;;;4.32;;
38465;SDS011;24244;51.950;5.902;2022-09-29T03:40:45;8.07;;;4.43;;
38465;SDS011;24244;51.950;5.902;2022-09-29T03:43:12;8.65;;;4.65;;
38465;SDS011;24244;51.950;5.902;2022-09-29T03:45:46;8.27;;;4.22;;
38465;SDS011;24244;51.950;5.902;2022-09-29T03:48:12;8.90;;;4.57;;
38465;SDS011;24244;51.950;5.902;2022-09-29T03:50:38;8.45;;;4.65;;
38465;SDS011;24244;51.950;5.902;2022-09-29T03:53:03;9.20;;;5.13;;
38465;SDS011;24244;51.950;5.902;2022-09-29T03:55:29;10.35;;;5.00;;
38465;SDS011;24244;51.950;5.902;2022-09-29T03:57:54;9.20;;;4.95;;
38465;SDS011;24244;51.950;5.902;2022-09-29T04:00:21;11.05;;;5.07;;
38465;SDS011;24244;51.950;5.902;2022-09-29T04:02:47;9.60;;;5.15;;
38465;SDS011;24244;51.950;5.902;2022-09-29T04:05:12;8.95;;;4.88;;
38465;SDS011;24244;51.950;5.902;2022-09-29T04:07:39;9.30;;;4.93;;
38465;SDS011;24244;51.950;5.902;2022-09-29T04:10:05;8.73;;;4.90;;
38465;SDS011;24244;51.950;5.902;2022-09-29T04:12:31;9.60;;;5.00;;
38465;SDS011;24244;51.950;5.902;2022-09-29T04:14:57;9.07;;;4.88;;
38465;SDS011;24244;51.950;5.902;2022-09-29T04:17:23;8.55;;;4.97;;
38465;SDS011;24244;51.950;5.902;2022-09-29T04:19:49;10.15;;;5.38;;
38465;SDS011;24244;51.950;5.902;2022-09-29T04:22:15;9.45;;;4.80;;
38465;SDS011;24244;51.950;5.902;2022-09-29T04:24:43;8.32;;;4.88;;
38465;SDS011;24244;51.950;5.902;2022-09-29T04:27:09;7.97;;;4.47;;
38465;SDS011;24244;51.950;5.902;2022-09-29T04:29:34;9.82;;;4.80;;
38465;SDS011;24244;51.950;5.902;2022-09-29T04:32:00;8.35;;;4.50;;
38465;SDS011;24244;51.950;5.902;2022-09-29T04:34:27;9.23;;;5.07;;
38465;SDS011;24244;51.950;5.902;2022-09-29T04:36:52;9.48;;;4.45;;
38465;SDS011;24244;51.950;5.902;2022-09-29T04:39:18;7.78;;;4.63;;
38465;SDS011;24244;51.950;5.902;2022-09-29T04:41:43;8.88;;;4.68;;
38465;SDS011;24244;51.950;5.902;2022-09-29T04:44:10;9.13;;;4.25;;
38465;SDS011;24244;51.950;5.902;2022-09-29T04:46:35;10.55;;;4.47;;
38465;SDS011;24244;51.950;5.902;2022-09-29T04:49:01;8.82;;;4.30;;
38465;SDS011;24244;51.950;5.902;2022-09-29T04:51:27;7.53;;;3.78;;
38465;SDS011;24244;51.950;5.902;2022-09-29T04:53:53;7.63;;;3.83;;
38465;SDS011;24244;51.950;5.902;2022-09-29T04:56:19;9.00;;;3.95;;
38465;SDS011;24244;51.950;5.902;2022-09-29T04:58:44;6.97;;;4.05;;
38465;SDS011;24244;51.950;5.902;2022-09-29T05:01:10;7.60;;;3.95;;
38465;SDS011;24244;51.950;5.902;2022-09-29T05:03:39;7.20;;;3.88;;
38465;SDS011;24244;51.950;5.902;2022-09-29T05:06:05;7.45;;;3.67;;
38465;SDS011;24244;51.950;5.902;2022-09-29T05:08:32;7.43;;;3.70;;
38465;SDS011;24244;51.950;5.902;2022-09-29T05:10:58;7.85;;;3.80;;
38465;SDS011;24244;51.950;5.902;2022-09-29T05:13:27;7.03;;;3.80;;
38465;SDS011;24244;51.950;5.902;2022-09-29T05:15:56;7.18;;;3.92;;
38465;SDS011;24244;51.950;5.902;2022-09-29T05:18:21;8.13;;;4.00;;
38465;SDS011;24244;51.950;5.902;2022-09-29T05:20:47;6.88;;;3.95;;
38465;SDS011;24244;51.950;5.902;2022-09-29T05:23:12;6.80;;;4.00;;
38465;SDS011;24244;51.950;5.902;2022-09-29T05:25:39;7.10;;;4.05;;
38465;SDS011;24244;51.950;5.902;2022-09-29T05:28:05;6.97;;;4.35;;
38465;SDS011;24244;51.950;5.902;2022-09-29T05:30:32;7.88;;;4.38;;
38465;SDS011;24244;51.950;5.902;2022-09-29T05:32:58;8.52;;;4.60;;
38465;SDS011;24244;51.950;5.902;2022-09-29T05:35:23;8.40;;;4.72;;
38465;SDS011;24244;51.950;5.902;2022-09-29T05:37:49;8.30;;;5.25;;
38465;SDS011;24244;51.950;5.902;2022-09-29T05:40:15;7.88;;;4.75;;
38465;SDS011;24244;51.950;5.902;2022-09-29T05:42:42;9.25;;;5.30;;
38465;SDS011;24244;51.950;5.902;2022-09-29T05:45:08;9.60;;;5.40;;
38465;SDS011;24244;51.950;5.902;2022-09-29T05:47:34;8.18;;;5.28;;
38465;SDS011;24244;51.950;5.902;2022-09-29T05:50:00;8.93;;;5.32;;
38465;SDS011;24244;51.950;5.902;2022-09-29T05:52:27;7.97;;;5.38;;
38465;SDS011;24244;51.950;5.902;2022-09-29T05:54:53;8.63;;;5.00;;
38465;SDS011;24244;51.950;5.902;2022-09-29T05:57:18;8.00;;;4.95;;
38465;SDS011;24244;51.950;5.902;2022-09-29T05:59:45;8.55;;;5.43;;
38465;SDS011;24244;51.950;5.902;2022-09-29T06:02:11;8.68;;;5.55;;
38465;SDS011;24244;51.950;5.902;2022-09-29T06:04:37;10.00;;;5.40;;
38465;SDS011;24244;51.950;5.902;2022-09-29T06:07:02;9.50;;;5.53;;
38465;SDS011;24244;51.950;5.902;2022-09-29T06:09:28;9.05;;;5.20;;
38465;SDS011;24244;51.950;5.902;2022-09-29T06:11:54;9.98;;;5.72;;
38465;SDS011;24244;51.950;5.902;2022-09-29T06:14:19;10.02;;;5.68;;
38465;SDS011;24244;51.950;5.902;2022-09-29T06:16:46;9.98;;;6.22;;
38465;SDS011;24244;51.950;5.902;2022-09-29T06:19:12;14.82;;;6.75;;
38465;SDS011;24244;51.950;5.902;2022-09-29T06:21:38;13.32;;;6.88;;
38465;SDS011;24244;51.950;5.902;2022-09-29T06:24:03;12.55;;;6.43;;
38465;SDS011;24244;51.950;5.902;2022-09-29T06:26:31;10.30;;;6.50;;
38465;SDS011;24244;51.950;5.902;2022-09-29T06:28:57;12.35;;;6.80;;
38465;SDS011;24244;51.950;5.902;2022-09-29T06:31:23;13.55;;;7.03;;
38465;SDS011;24244;51.950;5.902;2022-09-29T06:33:51;12.13;;;6.70;;
38465;SDS011;24244;51.950;5.902;2022-09-29T06:36:17;13.68;;;6.60;;
38465;SDS011;24244;51.950;5.902;2022-09-29T06:39:04;12.23;;;7.03;;
38465;SDS011;24244;51.950;5.902;2022-09-29T06:41:30;13.07;;;7.43;;
38465;SDS011;24244;51.950;5.902;2022-09-29T06:43:56;11.15;;;6.95;;
38465;SDS011;24244;51.950;5.902;2022-09-29T06:46:22;11.10;;;7.03;;
38465;SDS011;24244;51.950;5.902;2022-09-29T06:48:48;14.73;;;7.72;;
38465;SDS011;24244;51.950;5.902;2022-09-29T06:51:14;12.27;;;7.38;;
38465;SDS011;24244;51.950;5.902;2022-09-29T06:53:40;19.35;;;7.82;;
38465;SDS011;24244;51.950;5.902;2022-09-29T06:56:06;20.92;;;9.57;;
38465;SDS011;24244;51.950;5.902;2022-09-29T06:58:33;14.93;;;8.77;;
38465;SDS011;24244;51.950;5.902;2022-09-29T07:00:59;15.43;;;9.15;;
38465;SDS011;24244;51.950;5.902;2022-09-29T07:03:25;15.98;;;8.82;;
38465;SDS011;24244;51.950;5.902;2022-09-29T07:05:51;15.63;;;9.18;;
38465;SDS011;24244;51.950;5.902;2022-09-29T07:08:18;16.83;;;9.10;;
38465;SDS011;24244;51.950;5.902;2022-09-29T07:10:44;13.73;;;8.60;;
38465;SDS011;24244;51.950;5.902;2022-09-29T07:13:10;31.75;;;9.00;;
38465;SDS011;24244;51.950;5.902;2022-09-29T07:15:35;20.00;;;9.40;;
38465;SDS011;24244;51.950;5.902;2022-09-29T07:18:02;20.30;;;9.15;;
38465;SDS011;24244;51.950;5.902;2022-09-29T07:20:28;17.50;;;9.30;;
38465;SDS011;24244;51.950;5.902;2022-09-29T07:22:55;24.63;;;9.63;;
38465;SDS011;24244;51.950;5.902;2022-09-29T07:25:23;16.38;;;9.98;;
38465;SDS011;24244;51.950;5.902;2022-09-29T07:27:48;19.27;;;10.98;;
38465;SDS011;24244;51.950;5.902;2022-09-29T07:30:15;16.13;;;10.75;;
38465;SDS011;24244;51.950;5.902;2022-09-29T07:32:42;16.17;;;10.98;;
38465;SDS011;24244;51.950;5.902;2022-09-29T07:35:07;17.35;;;10.90;;
38465;SDS011;24244;51.950;5.902;2022-09-29T07:37:33;19.48;;;12.57;;
38465;SDS011;24244;51.950;5.902;2022-09-29T07:39:59;16.88;;;11.63;;
38465;SDS011;24244;51.950;5.902;2022-09-29T07:42:27;18.10;;;12.25;;
38465;SDS011;24244;51.950;5.902;2022-09-29T07:44:55;26.60;;;12.38;;
38465;SDS011;24244;51.950;5.902;2022-09-29T07:47:21;18.55;;;12.70;;
38465;SDS011;24244;51.950;5.902;2022-09-29T07:49:47;21.92;;;12.48;;
38465;SDS011;24244;51.950;5.902;2022-09-29T07:52:13;19.83;;;12.80;;
38465;SDS011;24244;51.950;5.902;2022-09-29T07:54:38;20.83;;;14.35;;
38465;SDS011;24244;51.950;5.902;2022-09-29T07:57:04;19.70;;;13.23;;
38465;SDS011;24244;51.950;5.902;2022-09-29T07:59:30;21.73;;;14.13;;
38465;SDS011;24244;51.950;5.902;2022-09-29T08:01:56;20.33;;;14.38;;
38465;SDS011;24244;51.950;5.902;2022-09-29T08:04:22;21.45;;;14.93;;
38465;SDS011;24244;51.950;5.902;2022-09-29T08:06:48;22.27;;;16.00;;
38465;SDS011;24244;51.950;5.902;2022-09-29T08:09:14;20.85;;;14.38;;
38465;SDS011;24244;51.950;5.902;2022-09-29T08:11:41;21.48;;;15.15;;
38465;SDS011;24244;51.950;5.902;2022-09-29T08:14:07;21.73;;;14.43;;
38465;SDS011;24244;51.950;5.902;2022-09-29T08:16:35;24.52;;;16.73;;
38465;SDS011;24244;51.950;5.902;2022-09-29T08:19:02;22.45;;;15.57;;
38465;SDS011;24244;51.950;5.902;2022-09-29T08:21:28;22.95;;;16.08;;
38465;SDS011;24244;51.950;5.902;2022-09-29T08:23:56;24.23;;;16.50;;
38465;SDS011;24244;51.950;5.902;2022-09-29T08:26:21;23.85;;;17.20;;
38465;SDS011;24244;51.950;5.902;2022-09-29T08:28:47;23.67;;;16.52;;
38465;SDS011;24244;51.950;5.902;2022-09-29T08:31:13;23.60;;;17.20;;
38465;SDS011;24244;51.950;5.902;2022-09-29T08:33:46;25.45;;;15.77;;
38465;SDS011;24244;51.950;5.902;2022-09-29T08:36:13;22.45;;;16.10;;
38465;SDS011;24244;51.950;5.902;2022-09-29T08:38:41;23.35;;;16.88;;
38465;SDS011;24244;51.950;5.902;2022-09-29T08:41:11;24.83;;;17.58;;
38465;SDS011;24244;51.950;5.902;2022-09-29T08:43:45;22.90;;;16.00;;
38465;SDS011;24244;51.950;5.902;2022-09-29T08:46:15;22.55;;;15.93;;
38465;SDS011;24244;51.950;5.902;2022-09-29T08:48:49;25.45;;;18.25;;
38465;SDS011;24244;51.950;5.902;2022-09-29T08:51:19;26.83;;;18.15;;
38465;SDS011;24244;51.950;5.902;2022-09-29T08:53:50;25.17;;;18.23;;
38465;SDS011;24244;51.950;5.902;2022-09-29T08:56:19;26.65;;;18.90;;
38465;SDS011;24244;51.950;5.902;2022-09-29T08:58:45;25.33;;;17.77;;
38465;SDS011;24244;51.950;5.902;2022-09-29T09:01:15;27.30;;;19.77;;
38465;SDS011;24244;51.950;5.902;2022-09-29T09:06:55;26.40;;;19.20;;
38465;SDS011;24244;51.950;5.902;2022-09-29T09:09:33;27.40;;;20.50;;
38465;SDS011;24244;51.950;5.902;2022-09-29T09:12:11;28.88;;;20.35;;
38465;SDS011;24244;51.950;5.902;2022-09-29T09:15:12;26.98;;;21.23;;
38465;SDS011;24244;51.950;5.902;2022-09-29T09:17:49;27.63;;;20.67;;
38465;SDS011;24244;51.950;5.902;2022-09-29T09:20:30;28.40;;;20.67;;
38465;SDS011;24244;51.950;5.902;2022-09-29T09:22:58;28.85;;;21.00;;
38465;SDS011;24244;51.950;5.902;2022-09-29T09:25:29;28.52;;;21.00;;
38465;SDS011;24244;51.950;5.902;2022-09-29T09:27:59;26.85;;;20.10;;
38465;SDS011;24244;51.950;5.902;2022-09-29T09:30:29;27.00;;;19.67;;
38465;SDS011;24244;51.950;5.902;2022-09-29T09:33:03;28.08;;;20.48;;
38465;SDS011;24244;51.950;5.902;2022-09-29T09:35:36;26.80;;;18.65;;
38465;SDS011;24244;51.950;5.902;2022-09-29T09:38:11;27.20;;;19.45;;
38465;SDS011;24244;51.950;5.902;2022-09-29T09:40:44;27.98;;;20.25;;
38465;SDS011;24244;51.950;5.902;2022-09-29T09:43:12;28.27;;;20.85;;
38465;SDS011;24244;51.950;5.902;2022-09-29T09:45:45;23.42;;;16.98;;
38465;SDS011;24244;51.950;5.902;2022-09-29T09:48:15;23.58;;;17.98;;
38465;SDS011;24244;51.950;5.902;2022-09-29T09:50:47;23.48;;;17.55;;
38465;SDS011;24244;51.950;5.902;2022-09-29T09:53:15;25.17;;;18.05;;
38465;SDS011;24244;51.950;5.902;2022-09-29T09:55:46;22.83;;;16.42;;
38465;SDS011;24244;51.950;5.902;2022-09-29T09:58:36;21.85;;;16.45;;
38465;SDS011;24244;51.950;5.902;2022-09-29T10:01:18;21.10;;;14.70;;
38465;SDS011;24244;51.950;5.902;2022-09-29T10:03:44;20.60;;;15.20;;
38465;SDS011;24244;51.950;5.902;2022-09-29T10:06:11;22.00;;;16.40;;
38465;SDS011;24244;51.950;5.902;2022-09-29T10:08:37;21.05;;;15.88;;
38465;SDS011;24244;51.950;5.902;2022-09-29T10:11:11;20.10;;;15.85;;
38465;SDS011;24244;51.950;5.902;2022-09-29T10:13:45;20.15;;;15.48;;
38465;SDS011;24244;51.950;5.902;2022-09-29T10:16:12;22.92;;;15.82;;
38465;SDS011;24244;51.950;5.902;2022-09-29T10:18:41;20.85;;;15.55;;
38465;SDS011;24244;51.950;5.902;2022-09-29T10:23:49;19.20;;;12.52;;
38465;SDS011;24244;51.950;5.902;2022-09-29T10:26:15;18.20;;;13.63;;
38465;SDS011;24244;51.950;5.902;2022-09-29T10:28:43;17.63;;;13.00;;
38465;SDS011;24244;51.950;5.902;2022-09-29T10:31:15;19.02;;;12.98;;
38465;SDS011;24244;51.950;5.902;2022-09-29T10:33:45;19.52;;;13.50;;
38465;SDS011;24244;51.950;5.902;2022-09-29T10:36:13;18.40;;;12.77;;
38465;SDS011;24244;51.950;5.902;2022-09-29T10:38:40;16.95;;;12.27;;
38465;SDS011;24244;51.950;5.902;2022-09-29T10:41:10;16.77;;;11.75;;
38465;SDS011;24244;51.950;5.902;2022-09-29T10:43:36;16.52;;;12.27;;
38465;SDS011;24244;51.950;5.902;2022-09-29T10:46:03;17.25;;;12.38;;
38465;SDS011;24244;51.950;5.902;2022-09-29T10:48:30;16.35;;;11.60;;
38465;SDS011;24244;51.950;5.902;2022-09-29T10:50:57;15.85;;;10.93;;
38465;SDS011;24244;51.950;5.902;2022-09-29T10:53:26;16.05;;;11.48;;
38465;SDS011;24244;51.950;5.902;2022-09-29T10:55:58;17.20;;;11.38;;
38465;SDS011;24244;51.950;5.902;2022-09-29T10:58:27;15.38;;;11.35;;
38465;SDS011;24244;51.950;5.902;2022-09-29T11:01:02;18.37;;;11.20;;
38465;SDS011;24244;51.950;5.902;2022-09-29T11:03:31;15.43;;;10.27;;
38465;SDS011;24244;51.950;5.902;2022-09-29T11:06:00;16.63;;;10.60;;
38465;SDS011;24244;51.950;5.902;2022-09-29T11:08:28;13.88;;;9.00;;
38465;SDS011;24244;51.950;5.902;2022-09-29T11:11:05;14.48;;;9.32;;
38465;SDS011;24244;51.950;5.902;2022-09-29T11:13:41;13.20;;;8.32;;
38465;SDS011;24244;51.950;5.902;2022-09-29T11:16:12;13.07;;;8.82;;
38465;SDS011;24244;51.950;5.902;2022-09-29T11:18:39;12.98;;;7.60;;
38465;SDS011;24244;51.950;5.902;2022-09-29T11:21:13;12.10;;;6.95;;
38465;SDS011;24244;51.950;5.902;2022-09-29T11:24:12;10.40;;;5.95;;
38465;SDS011;24244;51.950;5.902;2022-09-29T11:26:45;10.52;;;6.75;;
38465;SDS011;24244;51.950;5.902;2022-09-29T11:29:19;11.15;;;7.32;;
38465;SDS011;24244;51.950;5.902;2022-09-29T11:32:02;12.02;;;7.18;;
38465;SDS011;24244;51.950;5.902;2022-09-29T11:34:48;11.52;;;7.40;;
38465;SDS011;24244;51.950;5.902;2022-09-29T11:37:35;11.30;;;7.22;;
38465;SDS011;24244;51.950;5.902;2022-09-29T11:40:09;11.15;;;6.50;;
38465;SDS011;24244;51.950;5.902;2022-09-29T11:42:42;10.95;;;6.85;;
38465;SDS011;24244;51.950;5.902;2022-09-29T11:45:15;10.63;;;6.40;;
38465;SDS011;24244;51.950;5.902;2022-09-29T11:50:53;9.65;;;6.05;;
38465;SDS011;24244;51.950;5.902;2022-09-29T11:53:29;9.82;;;6.43;;
38465;SDS011;24244;51.950;5.902;2022-09-29T11:56:18;10.35;;;5.55;;
38465;SDS011;24244;51.950;5.902;2022-09-29T11:58:59;10.07;;;5.30;;
38465;SDS011;24244;51.950;5.902;2022-09-29T12:01:41;9.23;;;5.25;;
38465;SDS011;24244;51.950;5.902;2022-09-29T12:04:22;9.30;;;5.57;;
38465;SDS011;24244;51.950;5.902;2022-09-29T12:06:58;8.93;;;5.35;;
38465;SDS011;24244;51.950;5.902;2022-09-29T12:09:38;9.43;;;5.78;;
38465;SDS011;24244;51.950;5.902;2022-09-29T12:12:15;9.90;;;5.25;;
38465;SDS011;24244;51.950;5.902;2022-09-29T12:14:54;8.77;;;4.88;;
38465;SDS011;24244;51.950;5.902;2022-09-29T12:17:27;8.32;;;4.43;;
38465;SDS011;24244;51.950;5.902;2022-09-29T12:19:58;8.02;;;4.50;;
38465;SDS011;24244;51.950;5.902;2022-09-29T12:22:26;9.30;;;4.68;;
38465;SDS011;24244;51.950;5.902;2022-09-29T12:24:53;8.30;;;4.50;;
38465;SDS011;24244;51.950;5.902;2022-09-29T12:27:24;7.28;;;3.70;;
38465;SDS011;24244;51.950;5.902;2022-09-29T12:29:54;8.88;;;3.92;;
38465;SDS011;24244;51.950;5.902;2022-09-29T12:32:24;7.63;;;3.50;;
38465;SDS011;24244;51.950;5.902;2022-09-29T12:34:54;7.75;;;3.70;;
38465;SDS011;24244;51.950;5.902;2022-09-29T12:37:24;7.80;;;4.10;;
38465;SDS011;24244;51.950;5.902;2022-09-29T12:39:57;7.43;;;3.65;;
38465;SDS011;24244;51.950;5.902;2022-09-29T12:45:23;7.25;;;4.00;;
38465;SDS011;24244;51.950;5.902;2022-09-29T12:47:58;7.50;;;3.95;;
38465;SDS011;24244;51.950;5.902;2022-09-29T12:50:32;8.00;;;4.00;;
38465;SDS011;24244;51.950;5.902;2022-09-29T12:53:05;7.45;;;4.00;;
38465;SDS011;24244;51.950;5.902;2022-09-29T12:55:40;9.02;;;4.30;;
38465;SDS011;24244;51.950;5.902;2022-09-29T12:58:12;8.40;;;4.18;;
38465;SDS011;24244;51.950;5.902;2022-09-29T13:03:25;7.18;;;3.63;;
38465;SDS011;24244;51.950;5.902;2022-09-29T13:06:13;7.03;;;3.15;;
38465;SDS011;24244;51.950;5.902;2022-09-29T13:09:01;7.55;;;3.70;;
38465;SDS011;24244;51.950;5.902;2022-09-29T13:11:49;7.47;;;3.85;;
38465;SDS011;24244;51.950;5.902;2022-09-29T13:14:31;7.75;;;3.65;;
38465;SDS011;24244;51.950;5.902;2022-09-29T13:17:09;6.68;;;3.17;;
38465;SDS011;24244;51.950;5.902;2022-09-29T13:25:44;7.47;;;3.65;;
38465;SDS011;24244;51.950;5.902;2022-09-29T13:28:23;6.13;;;3.38;;
38465;SDS011;24244;51.950;5.902;2022-09-29T13:30:53;6.10;;;3.20;;
38465;SDS011;24244;51.950;5.902;2022-09-29T13:33:24;6.80;;;3.35;;
38465;SDS011;24244;51.950;5.902;2022-09-29T13:35:51;7.82;;;3.92;;
38465;SDS011;24244;51.950;5.902;2022-09-29T13:38:18;8.70;;;4.13;;
38465;SDS011;24244;51.950;5.902;2022-09-29T13:43:36;6.78;;;3.58;;
38465;SDS011;24244;51.950;5.902;2022-09-29T13:48:52;7.68;;;3.53;;
38465;SDS011;24244;51.950;5.902;2022-09-29T13:54:20;6.22;;;2.85;;
38465;SDS011;24244;51.950;5.902;2022-09-29T13:56:51;5.95;;;2.67;;
38465;SDS011;24244;51.950;5.902;2022-09-29T13:59:29;6.80;;;2.85;;
38465;SDS011;24244;51.950;5.902;2022-09-29T14:01:58;6.72;;;2.35;;
38465;SDS011;24244;51.950;5.902;2022-09-29T14:10:36;6.05;;;2.28;;
38465;SDS011;24244;51.950;5.902;2022-09-29T14:13:06;4.80;;;2.10;;
38465;SDS011;24244;51.950;5.902;2022-09-29T14:15:38;7.07;;;2.80;;
38465;SDS011;24244;51.950;5.902;2022-09-29T14:18:12;5.90;;;2.67;;
38465;SDS011;24244;51.950;5.902;2022-09-29T14:20:56;6.88;;;3.20;;
38465;SDS011;24244;51.950;5.902;2022-09-29T14:29:09;7.20;;;3.08;;
38465;SDS011;24244;51.950;5.902;2022-09-29T14:31:40;5.72;;;2.60;;
38465;SDS011;24244;51.950;5.902;2022-09-29T14:34:10;6.82;;;3.17;;
38465;SDS011;24244;51.950;5.902;2022-09-29T14:36:41;6.15;;;2.78;;
38465;SDS011;24244;51.950;5.902;2022-09-29T14:39:11;6.53;;;2.80;;
38465;SDS011;24244;51.950;5.902;2022-09-29T14:41:39;5.60;;;2.78;;
38465;SDS011;24244;51.950;5.902;2022-09-29T14:44:06;5.47;;;2.58;;
38465;SDS011;24244;51.950;5.902;2022-09-29T14:49:55;5.68;;;1.92;;
38465;SDS011;24244;51.950;5.902;2022-09-29T14:53:07;4.90;;;2.38;;
38465;SDS011;24244;51.950;5.902;2022-09-29T14:55:45;6.00;;;2.22;;
38465;SDS011;24244;51.950;5.902;2022-09-29T14:58:27;5.32;;;2.20;;
38465;SDS011;24244;51.950;5.902;2022-09-29T15:01:05;4.18;;;1.77;;
38465;SDS011;24244;51.950;5.902;2022-09-29T15:03:37;5.03;;;1.92;;
38465;SDS011;24244;51.950;5.902;2022-09-29T15:06:10;4.07;;;1.50;;
38465;SDS011;24244;51.950;5.902;2022-09-29T15:08:39;3.42;;;1.60;;
38465;SDS011;24244;51.950;5.902;2022-09-29T15:13:53;4.22;;;1.70;;
38465;SDS011;24244;51.950;5.902;2022-09-29T15:16:20;4.00;;;1.80;;
38465;SDS011;24244;51.950;5.902;2022-09-29T15:19:15;3.50;;;1.42;;
38465;SDS011;24244;51.950;5.902;2022-09-29T15:21:54;4.30;;;1.50;;
38465;SDS011;24244;51.950;5.902;2022-09-29T15:24:42;4.65;;;1.65;;
38465;SDS011;24244;51.950;5.902;2022-09-29T15:27:25;4.28;;;1.60;;
38465;SDS011;24244;51.950;5.902;2022-09-29T15:29:53;3.25;;;1.50;;
38465;SDS011;24244;51.950;5.902;2022-09-29T15:32:20;4.90;;;1.80;;
38465;SDS011;24244;51.950;5.902;2022-09-29T15:34:48;5.23;;;1.83;;
38465;SDS011;24244;51.950;5.902;2022-09-29T15:37:15;4.32;;;1.55;;
38465;SDS011;24244;51.950;5.902;2022-09-29T15:39:43;4.53;;;1.67;;
38465;SDS011;24244;51.950;5.902;2022-09-29T15:42:13;5.53;;;1.88;;
38465;SDS011;24244;51.950;5.902;2022-09-29T15:44:43;6.32;;;1.92;;
38465;SDS011;24244;51.950;5.902;2022-09-29T15:47:17;4.50;;;1.60;;
38465;SDS011;24244;51.950;5.902;2022-09-29T15:49:48;4.53;;;1.55;;
38465;SDS011;24244;51.950;5.902;2022-09-29T15:52:15;3.85;;;1.55;;
38465;SDS011;24244;51.950;5.902;2022-09-29T15:54:44;2.90;;;1.30;;